Time;durP1;ratioP1;P1;durP2;ratioP2;P2;SDS_P1;SDS_P2;PMS_P1;PMS_P2;Temp;Humidity;BMP_temperature;BMP_pressure;BME280_temperature;BME280_humidity;BME280_pressure;Samples;Min_cycle;Max_cycle;Signal;HPM_P1;HPM_P2
2023/01/01 00:01:59;;;;;;;8.80;4.28;;;11.70;92.10;;;;;;5036306;28;20029;-80
2023/01/01 00:04:25;;;;;;;7.78;4.60;;;11.70;92.00;;;;;;5036375;28;20052;-80
2023/01/01 00:06:50;;;;;;;7.93;4.32;;;11.80;91.90;;;;;;5039122;28;20036;-80
2023/01/01 00:12:00;;;;;;;8.48;4.43;;;11.80;91.80;;;;;;5040896;28;20163;-80
2023/01/01 00:14:26;;;;;;;6.13;3.90;;;11.80;91.80;;;;;;5041019;28;20045;-79
2023/01/01 00:16:54;;;;;;;7.50;4.32;;;11.80;91.80;;;;;;5040209;28;20018;-80
2023/01/01 00:19:20;;;;;;;7.80;4.15;;;11.70;91.90;;;;;;5040492;28;20515;-80
2023/01/01 00:21:45;;;;;;;7.65;4.15;;;11.80;92.00;;;;;;5038681;28;20030;-80
2023/01/01 00:24:11;;;;;;;7.93;4.40;;;11.80;92.00;;;;;;5038689;28;20071;-79
2023/01/01 00:26:36;;;;;;;8.27;4.57;;;11.80;92.00;;;;;;5040953;28;20076;-79
2023/01/01 00:29:03;;;;;;;8.10;4.38;;;11.80;92.10;;;;;;5038005;28;20022;-79
2023/01/01 00:31:29;;;;;;;7.55;4.20;;;11.80;92.10;;;;;;5037564;28;20040;-78
2023/01/01 00:33:55;;;;;;;9.25;4.22;;;11.80;92.10;;;;;;5037846;28;20021;-79
2023/01/01 00:36:22;;;;;;;7.97;4.13;;;11.70;92.00;;;;;;5036692;28;20029;-78
2023/01/01 00:38:48;;;;;;;7.15;4.47;;;11.80;92.10;;;;;;5036143;28;20033;-78
2023/01/01 00:41:15;;;;;;;8.68;4.72;;;11.80;92.00;;;;;;5035174;28;20029;-78
2023/01/01 00:43:41;;;;;;;8.13;4.63;;;11.80;91.90;;;;;;5033150;28;20025;-77
2023/01/01 00:46:07;;;;;;;8.35;4.55;;;11.80;91.80;;;;;;5036232;28;20025;-80
2023/01/01 00:48:33;;;;;;;7.18;4.25;;;11.80;91.70;;;;;;5037744;28;20057;-81
2023/01/01 00:50:59;;;;;;;8.73;4.65;;;11.80;91.70;;;;;;5036948;28;20039;-80
2023/01/01 00:53:25;;;;;;;7.35;4.75;;;11.80;91.70;;;;;;5036761;28;20079;-78
2023/01/01 00:55:51;;;;;;;8.05;4.38;;;11.80;91.70;;;;;;5035877;28;20030;-80
2023/01/01 00:58:17;;;;;;;9.30;5.10;;;11.80;91.70;;;;;;5036217;28;20395;-79
2023/01/01 01:00:44;;;;;;;10.13;4.82;;;11.80;91.70;;;;;;5035309;28;20488;-81
2023/01/01 01:03:26;;;;;;;8.10;5.00;;;11.80;91.70;;;;;;5036773;28;20060;-80
2023/01/01 01:06:01;;;;;;;9.18;4.90;;;11.80;91.80;;;;;;5035207;28;20109;-79
2023/01/01 01:08:28;;;;;;;8.40;4.90;;;11.80;91.70;;;;;;5036152;28;20085;-79
2023/01/01 01:10:54;;;;;;;7.70;4.88;;;11.80;91.80;;;;;;5036703;28;20092;-79
2023/01/01 01:13:20;;;;;;;8.15;5.13;;;11.70;91.80;;;;;;5034215;28;20516;-81
2023/01/01 01:15:46;;;;;;;9.88;5.45;;;11.80;91.80;;;;;;5033090;28;20029;-82
2023/01/01 01:18:12;;;;;;;8.18;4.97;;;11.80;91.80;;;;;;5036658;28;20044;-78
2023/01/01 01:20:37;;;;;;;8.77;5.43;;;11.80;91.70;;;;;;5035241;28;20025;-78
2023/01/01 01:23:03;;;;;;;9.20;5.38;;;11.80;91.70;;;;;;5034955;28;20033;-78
2023/01/01 01:25:29;;;;;;;8.40;5.55;;;11.80;91.70;;;;;;5033824;28;20084;-79
2023/01/01 01:27:54;;;;;;;8.07;5.22;;;11.80;91.70;;;;;;5033424;28;20400;-79
2023/01/01 01:30:20;;;;;;;9.18;5.38;;;11.80;91.60;;;;;;5035085;28;20416;-78
2023/01/01 01:32:45;;;;;;;7.78;5.28;;;11.80;91.70;;;;;;5035551;28;20034;-77
2023/01/01 01:35:11;;;;;;;8.23;5.45;;;11.80;91.80;;;;;;5035950;28;20028;-79
2023/01/01 01:37:36;;;;;;;8.75;5.50;;;11.80;91.80;;;;;;5034307;28;20124;-78
2023/01/01 01:40:03;;;;;;;8.95;5.45;;;11.80;91.70;;;;;;5034284;28;20068;-78
2023/01/01 01:42:28;;;;;;;11.70;6.25;;;11.80;91.80;;;;;;5033348;28;20056;-79
2023/01/01 01:44:57;;;;;;;8.52;5.25;;;11.80;91.80;;;;;;5034156;28;20026;-76
2023/01/01 01:47:28;;;;;;;9.40;6.13;;;11.80;91.70;;;;;;5034088;28;20075;-78
2023/01/01 01:50:04;;;;;;;9.18;5.95;;;11.80;91.70;;;;;;5034818;28;20511;-76
2023/01/01 01:52:32;;;;;;;8.48;5.88;;;11.80;91.70;;;;;;5033461;28;20029;-79
2023/01/01 01:55:00;;;;;;;10.02;5.88;;;11.80;91.70;;;;;;5033231;28;20039;-78
2023/01/01 01:57:26;;;;;;;8.38;5.55;;;11.80;91.70;;;;;;5033231;28;20041;-78
2023/01/01 01:59:55;;;;;;;8.80;6.25;;;11.80;91.80;;;;;;5036138;28;20022;-79
2023/01/01 02:02:50;;;;;;;8.40;5.70;;;11.80;91.80;;;;;;5033685;28;20120;-79
2023/01/01 02:05:17;;;;;;;8.70;5.55;;;11.80;91.90;;;;;;5033684;28;20033;-76
2023/01/01 02:07:43;;;;;;;9.35;5.72;;;11.80;92.10;;;;;;5035003;28;20512;-79
2023/01/01 02:10:09;;;;;;;9.52;5.72;;;11.80;91.80;;;;;;5034717;28;20429;-80
2023/01/01 02:12:34;;;;;;;9.85;5.80;;;11.80;91.80;;;;;;5036084;28;20018;-78
2023/01/01 02:15:00;;;;;;;9.27;5.70;;;11.80;91.80;;;;;;5036579;28;20037;-80
2023/01/01 02:17:34;;;;;;;9.15;6.00;;;11.80;91.60;;;;;;5037044;28;20021;-79
2023/01/01 02:20:00;;;;;;;9.27;5.70;;;11.80;91.60;;;;;;5036311;28;20521;-78
2023/01/01 02:23:04;;;;;;;10.90;5.95;;;11.80;91.60;;;;;;5036356;28;20092;-79
2023/01/01 02:25:47;;;;;;;8.13;5.25;;;11.80;91.60;;;;;;5036424;28;20029;-79
2023/01/01 02:28:30;;;;;;;9.07;5.70;;;11.80;91.90;;;;;;5036114;28;20021;-78
2023/01/01 02:30:58;;;;;;;8.85;5.93;;;11.80;91.60;;;;;;5036369;28;20026;-78
2023/01/01 02:33:25;;;;;;;10.07;5.50;;;11.80;91.60;;;;;;5036731;28;20104;-80
2023/01/01 02:35:55;;;;;;;8.15;5.85;;;11.80;91.50;;;;;;5056400;28;20025;-80
2023/01/01 02:38:27;;;;;;;8.95;5.80;;;11.80;91.50;;;;;;5061156;28;20024;-80
2023/01/01 02:40:59;;;;;;;9.05;5.90;;;11.80;91.50;;;;;;5062040;28;20063;-80
2023/01/01 02:43:24;;;;;;;8.70;5.75;;;11.80;91.50;;;;;;5061362;28;20029;-82
2023/01/01 02:45:51;;;;;;;8.05;5.47;;;11.80;91.50;;;;;;5062277;28;20782;-79
2023/01/01 02:48:40;;;;;;;8.15;5.78;;;11.80;91.50;;;;;;5061464;28;20383;-80
2023/01/01 02:51:47;;;;;;;8.40;5.80;;;11.80;91.50;;;;;;5062061;28;20021;-80
2023/01/01 02:54:16;;;;;;;9.85;5.45;;;11.80;91.50;;;;;;5061422;28;20017;-78
2023/01/01 02:56:59;;;;;;;9.23;5.72;;;11.80;91.50;;;;;;5060772;28;20100;-80
2023/01/01 03:03:08;;;;;;;8.20;5.32;;;11.80;91.50;;;;;;5058452;28;20052;-78
2023/01/01 03:06:21;;;;;;;10.35;6.18;;;11.80;91.70;;;;;;5041212;28;20040;-77
2023/01/01 03:08:42;;;;;;;7.88;5.40;;;11.80;91.50;;;;;;5058350;28;20074;-80
2023/01/01 03:11:12;;;;;;;9.15;5.60;;;11.80;91.50;;;;;;5057253;28;20387;-78
2023/01/01 03:13:48;;;;;;;12.35;5.72;;;11.90;91.50;;;;;;5055922;28;20036;-79
2023/01/01 03:16:39;;;;;;;8.00;5.35;;;11.90;91.50;;;;;;5059762;28;20079;-78
2023/01/01 03:19:21;;;;;;;8.63;5.15;;;11.80;91.50;;;;;;5057900;28;20029;-80
2023/01/01 03:21:55;;;;;;;8.95;5.45;;;11.80;91.50;;;;;;5059684;28;20102;-80
2023/01/01 03:24:50;;;;;;;8.88;5.43;;;11.80;91.50;;;;;;5059093;28;20033;-79
2023/01/01 03:27:24;;;;;;;9.25;5.80;;;11.80;91.50;;;;;;5060931;28;20021;-79
2023/01/01 03:29:52;;;;;;;7.88;5.07;;;11.80;91.50;;;;;;5058616;28;20084;-80
2023/01/01 03:32:59;;;;;;;8.38;5.22;;;11.80;91.50;;;;;;5058677;28;20513;-79
2023/01/01 03:35:19;;;;;;;7.53;4.72;;;11.80;91.50;;;;;;5060313;28;20025;-80
2023/01/01 03:37:48;;;;;;;8.70;5.30;;;11.80;91.50;;;;;;5058988;28;20033;-80
2023/01/01 03:40:15;;;;;;;9.30;5.32;;;11.80;91.50;;;;;;5058085;28;20032;-79
2023/01/01 03:42:47;;;;;;;8.95;5.30;;;11.90;91.50;;;;;;5056682;28;20613;-78
2023/01/01 03:45:17;;;;;;;;;;;11.80;91.50;;;;;;5059718;28;20032;-80
2023/01/01 03:47:44;;;;;;;7.60;4.60;;;11.80;91.40;;;;;;5058723;28;19905;-78
2023/01/01 03:50:10;;;;;;;8.60;4.60;;;11.80;91.50;;;;;;5058939;28;20025;-79
2023/01/01 03:52:42;;;;;;;7.75;4.82;;;11.80;91.50;;;;;;5059399;28;20091;-80
2023/01/01 03:55:13;;;;;;;8.30;4.78;;;11.80;91.50;;;;;;5056237;28;20025;-78
2023/01/01 03:57:53;;;;;;;8.63;4.80;;;11.90;91.50;;;;;;5050430;28;20045;-79
2023/01/01 04:00:22;;;;;;;7.85;4.40;;;11.80;91.40;;;;;;5056184;28;20263;-78
2023/01/01 04:03:01;;;;;;;7.45;4.57;;;11.90;91.50;;;;;;5045463;28;20031;-78
2023/01/01 04:05:29;;;;;;;8.20;4.38;;;11.80;91.40;;;;;;5036759;28;20454;-81
2023/01/01 04:07:55;;;;;;;7.32;4.47;;;11.90;91.40;;;;;;5038201;28;20112;-78
2023/01/01 04:10:23;;;;;;;7.18;4.30;;;11.80;91.40;;;;;;5037997;28;20029;-76
2023/01/01 04:12:55;;;;;;;7.60;4.20;;;11.80;91.50;;;;;;5035522;28;20029;-79
2023/01/01 04:15:24;;;;;;;6.35;4.20;;;11.80;91.40;;;;;;5035232;28;20028;-78
2023/01/01 04:17:50;;;;;;;8.45;4.60;;;11.90;91.40;;;;;;5035384;28;20071;-78
2023/01/01 04:20:16;;;;;;;7.78;4.47;;;11.80;91.40;;;;;;5034998;28;20400;-79
2023/01/01 04:22:42;;;;;;;7.20;4.13;;;11.90;91.50;;;;;;5033260;28;20021;-78
2023/01/01 04:25:09;;;;;;;8.10;4.22;;;11.80;91.50;;;;;;5033749;28;20029;-78
2023/01/01 04:27:35;;;;;;;6.95;3.60;;;11.80;91.50;;;;;;5034014;28;20021;-79
2023/01/01 04:30:01;;;;;;;7.30;3.78;;;11.90;91.50;;;;;;5034779;28;20391;-79
2023/01/01 04:32:28;;;;;;;6.07;3.58;;;11.90;91.50;;;;;;5034727;28;20167;-78
2023/01/01 04:34:54;;;;;;;6.15;3.72;;;11.90;91.50;;;;;;5032989;28;20055;-79
2023/01/01 04:37:19;;;;;;;6.50;3.50;;;11.80;91.50;;;;;;5033374;28;20025;-76
2023/01/01 04:39:45;;;;;;;7.60;3.95;;;11.80;91.50;;;;;;5033130;28;20097;-77
2023/01/01 04:42:10;;;;;;;7.38;3.80;;;11.80;91.50;;;;;;5032886;28;20029;-77
2023/01/01 04:44:36;;;;;;;7.25;4.18;;;11.90;91.50;;;;;;5033160;28;20022;-82
2023/01/01 04:47:01;;;;;;;6.28;3.42;;;11.90;91.50;;;;;;5034290;28;20014;-79
2023/01/01 04:49:27;;;;;;;7.38;3.90;;;11.90;91.40;;;;;;5035703;28;20030;-77
2023/01/01 04:51:52;;;;;;;6.15;3.30;;;11.90;91.40;;;;;;5031604;28;20049;-78
2023/01/01 04:54:18;;;;;;;5.75;3.28;;;11.90;91.40;;;;;;5036404;28;20083;-78
2023/01/01 04:56:43;;;;;;;6.68;3.60;;;11.90;91.40;;;;;;5037338;28;20053;-78
2023/01/01 04:59:08;;;;;;;7.10;3.63;;;11.80;91.30;;;;;;5036776;28;20021;-79
2023/01/01 05:01:34;;;;;;;6.60;3.45;;;11.80;91.30;;;;;;5034483;28;20112;-79
2023/01/01 05:04:00;;;;;;;6.32;3.40;;;11.90;91.40;;;;;;5035200;28;20028;-78
2023/01/01 05:06:27;;;;;;;6.00;3.50;;;11.90;91.40;;;;;;5035613;28;20021;-79
2023/01/01 05:08:53;;;;;;;7.15;3.72;;;11.90;91.40;;;;;;5036835;28;20018;-79
2023/01/01 05:11:24;;;;;;;6.22;3.35;;;11.90;91.40;;;;;;5034646;28;20033;-79
2023/01/01 05:13:51;;;;;;;5.72;3.33;;;11.90;91.40;;;;;;5036259;28;20021;-79
2023/01/01 05:16:19;;;;;;;6.97;3.35;;;11.90;91.40;;;;;;5036857;28;20078;-78
2023/01/01 05:18:45;;;;;;;6.07;3.15;;;11.90;91.40;;;;;;5033912;28;20025;-79
2023/01/01 05:21:20;;;;;;;5.72;2.90;;;11.90;91.40;;;;;;5033830;28;20029;-78
2023/01/01 05:23:46;;;;;;;5.75;3.00;;;11.90;91.40;;;;;;5033172;28;20022;-79
2023/01/01 05:26:17;;;;;;;6.00;3.03;;;11.90;91.40;;;;;;5034840;28;20025;-78
2023/01/01 05:28:43;;;;;;;5.78;3.00;;;11.90;91.40;;;;;;5036292;28;20030;-78
2023/01/01 05:31:12;;;;;;;5.40;2.80;;;11.90;91.40;;;;;;5034752;28;20025;-79
2023/01/01 05:33:37;;;;;;;5.43;2.63;;;11.90;91.40;;;;;;5032309;28;20022;-80
2023/01/01 05:36:05;;;;;;;5.43;2.95;;;11.90;91.40;;;;;;5035192;28;20033;-79
2023/01/01 05:38:31;;;;;;;7.45;2.80;;;11.90;91.40;;;;;;5034169;28;20138;-83
2023/01/01 05:40:57;;;;;;;5.13;2.60;;;11.90;91.40;;;;;;5034989;28;20476;-80
2023/01/01 05:43:22;;;;;;;5.35;2.92;;;11.90;91.40;;;;;;5036652;28;20112;-80
2023/01/01 05:45:48;;;;;;;5.50;2.75;;;11.90;91.40;;;;;;5036926;28;20117;-79
2023/01/01 05:48:13;;;;;;;6.20;3.00;;;11.90;91.40;;;;;;5040363;28;20018;-78
2023/01/01 05:50:39;;;;;;;5.40;2.80;;;11.90;91.40;;;;;;5037417;28;20036;-79
2023/01/01 05:53:04;;;;;;;4.75;2.63;;;11.90;91.30;;;;;;5041993;28;20108;-81
2023/01/01 05:55:30;;;;;;;4.85;2.42;;;11.90;91.30;;;;;;5047043;28;20037;-81
2023/01/01 05:57:56;;;;;;;5.47;2.63;;;11.80;91.30;;;;;;5047895;28;20494;-81
2023/01/01 06:00:22;;;;;;;5.47;2.65;;;11.90;91.40;;;;;;5064505;28;20483;-80
2023/01/01 06:02:50;;;;;;;6.13;3.03;;;11.90;91.40;;;;;;5064611;28;20044;-80
2023/01/01 06:05:16;;;;;;;5.28;2.50;;;11.90;91.60;;;;;;5066870;28;20032;-79
2023/01/01 06:07:42;;;;;;;4.97;2.38;;;11.90;91.40;;;;;;5066405;28;20490;-80
2023/01/01 06:10:07;;;;;;;5.03;2.22;;;11.90;91.40;;;;;;5064769;28;20040;-79
2023/01/01 06:12:33;;;;;;;4.55;2.05;;;11.90;91.40;;;;;;5064256;28;20025;-80
2023/01/01 06:14:59;;;;;;;5.30;2.40;;;11.90;91.40;;;;;;5062019;28;20082;-80
2023/01/01 06:17:24;;;;;;;4.28;2.13;;;11.90;91.40;;;;;;5063600;28;20052;-79
2023/01/01 06:19:50;;;;;;;4.45;2.20;;;11.90;91.40;;;;;;5065293;28;20035;-81
2023/01/01 06:22:15;;;;;;;4.50;2.20;;;11.90;91.40;;;;;;5063310;28;20037;-78
2023/01/01 06:24:41;;;;;;;5.50;2.28;;;11.90;91.40;;;;;;5063065;28;20021;-79
2023/01/01 06:27:06;;;;;;;4.82;2.00;;;11.90;91.40;;;;;;5064851;28;20021;-82
2023/01/01 06:29:32;;;;;;;4.80;2.25;;;11.90;91.40;;;;;;5062396;28;20058;-79
2023/01/01 06:31:57;;;;;;;4.85;2.10;;;11.90;91.40;;;;;;5061667;28;20021;-80
2023/01/01 06:34:23;;;;;;;4.72;2.38;;;11.90;91.40;;;;;;5062180;28;20103;-82
2023/01/01 06:36:48;;;;;;;4.63;2.00;;;11.90;91.40;;;;;;5062154;28;20083;-78
2023/01/01 06:39:14;;;;;;;5.22;2.20;;;11.90;91.30;;;;;;5063507;28;20116;-81
2023/01/01 06:41:39;;;;;;;3.88;2.00;;;11.90;91.30;;;;;;5061902;28;20070;-79
2023/01/01 06:44:05;;;;;;;4.35;2.08;;;11.90;91.40;;;;;;5056217;28;20021;-78
2023/01/01 06:46:35;;;;;;;3.35;1.83;;;11.90;91.30;;;;;;5056370;28;20135;-83
2023/01/01 06:49:04;;;;;;;4.93;2.17;;;11.90;91.30;;;;;;5050942;28;20025;-77
2023/01/01 06:51:31;;;;;;;4.88;2.03;;;11.90;91.30;;;;;;5050323;28;20636;-76
2023/01/01 06:54:00;;;;;;;3.28;1.73;;;11.90;91.30;;;;;;5050240;28;20040;-79
2023/01/01 06:56:26;;;;;;;3.95;1.85;;;11.90;91.30;;;;;;5050607;28;20057;-76
2023/01/01 06:58:51;;;;;;;4.25;2.30;;;11.90;91.30;;;;;;5051904;28;20109;-76
2023/01/01 07:01:24;;;;;;;4.88;1.83;;;11.90;91.30;;;;;;5047914;28;20044;-76
2023/01/01 07:03:51;;;;;;;3.53;1.67;;;11.90;91.30;;;;;;5049774;28;20039;-78
2023/01/01 07:06:17;;;;;;;5.88;1.90;;;11.90;91.30;;;;;;5044105;28;20025;-78
2023/01/01 07:08:45;;;;;;;4.95;2.08;;;11.90;91.30;;;;;;5029809;28;20026;-79
2023/01/01 07:11:10;;;;;;;4.07;1.92;;;11.90;91.30;;;;;;5029078;28;20041;-79
2023/01/01 07:13:36;;;;;;;4.45;1.95;;;11.90;91.30;;;;;;5029823;28;20022;-78
2023/01/01 07:16:01;;;;;;;3.85;1.80;;;11.80;91.30;;;;;;5029619;28;20039;-79
2023/01/01 07:18:27;;;;;;;3.20;1.55;;;11.90;91.30;;;;;;5029994;28;20025;-79
2023/01/01 07:20:58;;;;;;;4.55;2.20;;;11.90;91.30;;;;;;5029299;28;20096;-77
2023/01/01 07:23:25;;;;;;;4.63;1.83;;;11.80;91.30;;;;;;5030632;28;20060;-77
2023/01/01 07:25:52;;;;;;;3.92;1.88;;;11.90;91.30;;;;;;5029441;28;20856;-82
2023/01/01 07:28:17;;;;;;;4.45;1.90;;;11.90;91.30;;;;;;5029547;28;20507;-79
2023/01/01 07:30:43;;;;;;;3.53;1.90;;;11.90;91.30;;;;;;5030521;28;20037;-77
2023/01/01 07:33:14;;;;;;;3.58;1.90;;;11.90;91.30;;;;;;5029292;28;20396;-78
2023/01/01 07:35:40;;;;;;;4.03;1.70;;;12.00;91.30;;;;;;5029559;28;20030;-78
2023/01/01 07:38:05;;;;;;;3.85;1.70;;;11.90;91.30;;;;;;5030337;28;20025;-82
2023/01/01 07:40:31;;;;;;;3.83;1.70;;;11.90;91.30;;;;;;5029339;28;20032;-76
2023/01/01 07:42:57;;;;;;;7.10;1.90;;;11.90;91.30;;;;;;5028831;28;20044;-76
2023/01/01 07:45:24;;;;;;;2.85;1.65;;;12.00;91.30;;;;;;5029404;28;20025;-80
2023/01/01 07:47:53;;;;;;;3.42;1.60;;;11.90;91.30;;;;;;5029359;28;20034;-76
2023/01/01 07:50:19;;;;;;;3.47;1.73;;;11.90;91.30;;;;;;5030376;28;20556;-77
2023/01/01 07:52:45;;;;;;;3.15;1.67;;;11.90;91.30;;;;;;5028805;28;20022;-79
2023/01/01 07:55:13;;;;;;;3.60;1.80;;;11.90;91.40;;;;;;5030303;28;20500;-83
2023/01/01 07:57:39;;;;;;;3.65;1.77;;;11.90;91.30;;;;;;5028914;28;20088;-77
2023/01/01 08:00:05;;;;;;;3.03;1.40;;;11.90;91.30;;;;;;5029328;28;20026;-77
2023/01/01 08:02:31;;;;;;;3.25;1.67;;;11.90;91.30;;;;;;5028703;28;20033;-77
2023/01/01 08:04:56;;;;;;;3.95;1.50;;;11.90;91.30;;;;;;5029505;28;20029;-78
2023/01/01 08:07:22;;;;;;;3.92;1.60;;;11.90;91.40;;;;;;5029001;28;20033;-79
2023/01/01 08:09:47;;;;;;;4.03;1.75;;;11.90;91.30;;;;;;5038847;28;20134;-78
2023/01/01 08:12:13;;;;;;;4.57;1.60;;;11.90;91.30;;;;;;5049691;28;20029;-75
2023/01/01 08:14:38;;;;;;;2.63;1.35;;;11.90;91.30;;;;;;5048284;28;20033;-79
2023/01/01 08:17:04;;;;;;;4.40;1.50;;;11.90;91.20;;;;;;5049875;28;20033;-78
2023/01/01 08:19:29;;;;;;;3.40;1.35;;;11.90;91.20;;;;;;5048247;28;20116;-80
2023/01/01 08:21:55;;;;;;;4.53;1.52;;;12.00;91.30;;;;;;5047976;28;20029;-76
2023/01/01 08:24:20;;;;;;;4.53;1.40;;;11.90;91.30;;;;;;5049651;28;20036;-78
2023/01/01 08:26:49;;;;;;;2.85;1.35;;;11.90;91.30;;;;;;5047947;28;20032;-77
2023/01/01 08:29:15;;;;;;;3.38;1.42;;;11.90;91.30;;;;;;5047846;28;20437;-79
2023/01/01 08:31:41;;;;;;;3.67;1.50;;;11.90;91.30;;;;;;5047836;28;20523;-78
2023/01/01 08:34:06;;;;;;;2.95;1.58;;;11.90;91.30;;;;;;5047901;28;20072;-77
2023/01/01 08:36:32;;;;;;;3.60;1.42;;;11.90;91.30;;;;;;5047795;28;20076;-76
2023/01/01 08:38:58;;;;;;;2.78;1.40;;;11.90;91.30;;;;;;5037610;28;20037;-77
2023/01/01 08:41:23;;;;;;;3.65;1.50;;;11.90;91.30;;;;;;5027664;28;20061;-76
2023/01/01 08:43:49;;;;;;;3.65;1.50;;;12.00;91.30;;;;;;5027799;28;20033;-77
2023/01/01 08:46:15;;;;;;;3.20;1.23;;;11.90;91.30;;;;;;5027885;28;20120;-76
2023/01/01 08:48:40;;;;;;;3.72;1.70;;;11.90;91.30;;;;;;5028782;28;20063;-81
2023/01/01 08:51:06;;;;;;;3.90;1.70;;;12.00;91.30;;;;;;5027817;28;20038;-76
2023/01/01 08:53:32;;;;;;;3.08;1.40;;;11.90;91.20;;;;;;5027707;28;20534;-76
2023/01/01 08:55:59;;;;;;;2.90;1.40;;;11.90;91.20;;;;;;5029203;28;20131;-76
2023/01/01 08:58:25;;;;;;;2.53;1.42;;;11.90;91.30;;;;;;5027662;28;20056;-79
2023/01/01 09:00:52;;;;;;;3.50;1.40;;;11.90;91.30;;;;;;5038899;28;20036;-76
2023/01/01 09:03:17;;;;;;;3.10;1.40;;;11.90;91.20;;;;;;5047525;28;20032;-77
2023/01/01 09:05:44;;;;;;;4.50;1.50;;;11.90;91.20;;;;;;5047515;28;20021;-77
2023/01/01 09:08:11;;;;;;;2.25;1.27;;;11.90;91.20;;;;;;5049219;28;20055;-76
2023/01/01 09:10:37;;;;;;;2.95;1.17;;;12.00;91.20;;;;;;5047024;28;20111;-78
2023/01/01 09:13:02;;;;;;;3.65;1.70;;;11.90;91.20;;;;;;5047423;28;20541;-75
2023/01/01 09:15:28;;;;;;;3.53;1.60;;;12.00;91.30;;;;;;5048380;28;20043;-76
2023/01/01 09:17:53;;;;;;;2.88;1.60;;;12.00;91.30;;;;;;5047382;28;20480;-77
2023/01/01 09:20:19;;;;;;;3.08;1.40;;;11.90;91.20;;;;;;5046911;28;20040;-77
2023/01/01 09:22:44;;;;;;;3.20;1.40;;;12.00;91.30;;;;;;5047047;28;20033;-77
2023/01/01 09:25:10;;;;;;;2.28;1.30;;;12.00;91.30;;;;;;5046737;28;20408;-80
2023/01/01 09:27:35;;;;;;;3.10;1.40;;;11.90;91.20;;;;;;5047195;28;20039;-77
2023/01/01 09:30:01;;;;;;;2.40;1.27;;;12.00;91.30;;;;;;5046872;28;20285;-81
2023/01/01 09:32:26;;;;;;;2.83;1.17;;;11.90;91.20;;;;;;5048028;28;20053;-78
2023/01/01 09:34:52;;;;;;;3.03;1.48;;;11.80;91.20;;;;;;5047977;28;20031;-78
2023/01/01 09:37:17;;;;;;;3.42;1.50;;;12.00;91.30;;;;;;5048392;28;20051;-76
2023/01/01 09:39:43;;;;;;;4.15;1.52;;;12.00;91.30;;;;;;5046694;28;20025;-78
2023/01/01 09:42:33;;;;;;;3.10;1.58;;;12.00;91.30;;;;;;5048065;28;20056;-78
2023/01/01 09:45:19;;;;;;;2.65;1.30;;;11.90;91.20;;;;;;5047842;28;20029;-77
2023/01/01 09:47:46;;;;;;;2.38;1.35;;;11.90;91.20;;;;;;5048208;28;20025;-77
2023/01/01 09:50:22;;;;;;;2.95;1.42;;;12.00;91.20;;;;;;5039539;28;20036;-83
2023/01/01 09:52:55;;;;;;;3.55;1.40;;;12.00;91.20;;;;;;5046221;28;20021;-74
2023/01/01 09:55:47;;;;;;;2.67;1.40;;;12.00;91.20;;;;;;5046603;28;20025;-75
2023/01/01 09:58:13;;;;;;;2.47;1.27;;;12.00;91.20;;;;;;5026218;28;20335;-78
2023/01/01 10:00:43;;;;;;;2.42;1.30;;;11.90;91.20;;;;;;5027677;28;20025;-77
2023/01/01 10:03:32;;;;;;;2.35;1.20;;;12.00;91.20;;;;;;5028153;28;20108;-75
2023/01/01 10:06:22;;;;;;;2.40;1.20;;;11.90;91.20;;;;;;5029959;28;20037;-84
2023/01/01 10:09:09;;;;;;;2.92;1.33;;;11.90;91.20;;;;;;5029710;28;20017;-75
2023/01/01 10:12:10;;;;;;;2.30;1.20;;;12.00;91.20;;;;;;5038818;28;20029;-74
2023/01/01 10:14:40;;;;;;;2.70;1.30;;;11.90;91.20;;;;;;5047704;28;20021;-77
2023/01/01 10:17:33;;;;;;;2.25;1.20;;;12.00;91.20;;;;;;5047732;28;20021;-75
2023/01/01 10:20:13;;;;;;;2.90;1.27;;;12.00;91.20;;;;;;5039635;28;20196;-79
2023/01/01 10:22:43;;;;;;;2.67;1.30;;;12.00;91.20;;;;;;5028770;28;20133;-76
2023/01/01 10:25:25;;;;;;;3.53;1.45;;;11.90;91.20;;;;;;5032150;28;20025;-79
2023/01/01 10:27:56;;;;;;;2.63;1.40;;;11.90;91.20;;;;;;5042364;28;20025;-75
2023/01/01 10:30:23;;;;;;;2.80;1.20;;;12.00;91.20;;;;;;5032392;28;20036;-76
2023/01/01 10:32:51;;;;;;;1.88;1.20;;;11.90;91.20;;;;;;5037928;28;20020;-76
2023/01/01 10:35:29;;;;;;;2.60;1.20;;;12.00;91.20;;;;;;5040225;28;20017;-77
2023/01/01 10:37:59;;;;;;;3.08;1.38;;;11.90;91.20;;;;;;5039483;28;20025;-77
2023/01/01 10:40:26;;;;;;;2.40;1.10;;;11.90;91.20;;;;;;5038948;28;20079;-78
2023/01/01 10:42:54;;;;;;;2.40;1.27;;;12.00;91.20;;;;;;5036817;28;20022;-77
2023/01/01 10:45:34;;;;;;;2.53;1.10;;;11.90;91.20;;;;;;5038396;28;20029;-78
2023/01/01 10:48:20;;;;;;;2.35;1.45;;;12.00;91.20;;;;;;5035870;28;20395;-80
2023/01/01 10:51:03;;;;;;;1.90;1.10;;;11.90;91.20;;;;;;5038368;28;20029;-75
2023/01/01 10:53:40;;;;;;;3.20;1.30;;;12.00;91.20;;;;;;5038503;28;20036;-76
2023/01/01 10:56:22;;;;;;;3.05;1.40;;;12.00;91.20;;;;;;5031132;28;20021;-77
2023/01/01 10:58:53;;;;;;;2.72;1.10;;;11.90;91.20;;;;;;5028530;28;20509;-76
2023/01/01 11:01:20;;;;;;;1.63;1.00;;;12.00;91.20;;;;;;5028447;28;20232;-80
2023/01/01 11:03:56;;;;;;;2.17;1.30;;;12.00;91.20;;;;;;5028768;28;20393;-76
2023/01/01 11:06:31;;;;;;;2.55;1.17;;;12.00;91.20;;;;;;5028877;28;20160;-82
2023/01/01 11:09:02;;;;;;;2.17;1.13;;;12.00;91.20;;;;;;5028466;28;20132;-80
2023/01/01 11:11:39;;;;;;;2.75;1.15;;;12.00;91.20;;;;;;5029211;28;20018;-77
2023/01/01 11:14:12;;;;;;;2.75;1.30;;;12.00;91.20;;;;;;5029610;28;20025;-77
2023/01/01 11:16:38;;;;;;;2.78;1.20;;;12.00;91.20;;;;;;5031102;28;20112;-78
2023/01/01 11:19:06;;;;;;;3.70;1.20;;;11.90;91.10;;;;;;5028262;28;20026;-77
2023/01/01 11:21:33;;;;;;;1.98;1.00;;;12.00;91.20;;;;;;5028520;28;20029;-77
2023/01/01 11:24:29;;;;;;;1.70;1.15;;;11.90;91.10;;;;;;5028621;28;20026;-77
2023/01/01 11:27:19;;;;;;;2.50;1.20;;;12.00;91.20;;;;;;5002675;28;20038;-75
2023/01/01 11:29:45;;;;;;;;;;;12.00;91.10;;;;;;5032626;28;20022;-76
2023/01/01 11:32:19;;;;;;;2.13;1.10;;;11.90;91.10;;;;;;5028222;28;19908;-77
2023/01/01 11:34:48;;;;;;;2.10;1.20;;;12.00;91.20;;;;;;5028822;28;20404;-76
2023/01/01 11:37:16;;;;;;;2.90;1.38;;;11.90;91.10;;;;;;5028947;28;20085;-78
2023/01/01 11:39:49;;;;;;;2.42;1.23;;;11.90;91.10;;;;;;5029232;28;20030;-74
2023/01/01 11:42:20;;;;;;;2.05;1.10;;;12.00;91.40;;;;;;5027914;28;20052;-77
2023/01/01 11:44:50;;;;;;;1.88;1.00;;;12.00;91.10;;;;;;5028461;28;20037;-76
2023/01/01 11:47:30;;;;;;;2.00;1.20;;;12.00;91.10;;;;;;5029444;28;20060;-82
2023/01/01 11:50:34;;;;;;;3.80;1.10;;;12.00;91.10;;;;;;5028880;28;20060;-82
2023/01/01 11:53:21;;;;;;;2.60;1.10;;;12.00;91.10;;;;;;5029618;28;20034;-77
2023/01/01 11:56:07;;;;;;;2.40;1.10;;;12.00;91.10;;;;;;5029229;28;20037;-81
2023/01/01 11:58:43;;;;;;;1.85;1.10;;;12.00;91.10;;;;;;5012192;28;20080;-76
2023/01/01 12:01:20;;;;;;;1.70;1.00;;;12.00;91.00;;;;;;5028756;28;20029;-78
2023/01/01 12:04:05;;;;;;;2.58;1.30;;;12.00;91.00;;;;;;5029602;28;20389;-78
2023/01/01 12:06:35;;;;;;;1.90;1.08;;;12.00;91.00;;;;;;5029012;28;20594;-80
2023/01/01 12:09:13;;;;;;;1.87;1.10;;;12.00;91.00;;;;;;5029202;28;20049;-77
2023/01/01 12:11:54;;;;;;;1.75;1.13;;;12.10;90.90;;;;;;5028644;28;20056;-77
2023/01/01 12:14:22;;;;;;;;;;;12.10;90.80;;;;;;5030649;28;20036;-77
2023/01/01 12:17:20;;;;;;;2.40;1.20;;;12.20;90.70;;;;;;5028667;28;20119;-78
2023/01/01 12:19:58;;;;;;;1.77;1.02;;;12.20;90.60;;;;;;4995799;28;20033;-78
2023/01/01 12:22:24;;;;;;;2.47;1.10;;;12.20;90.50;;;;;;5034085;28;20025;-84
2023/01/01 12:24:50;;;;;;;1.77;1.00;;;12.20;90.50;;;;;;5039501;28;20558;-77
2023/01/01 12:27:37;;;;;;;2.58;1.00;;;12.20;90.60;;;;;;5048136;28;20373;-77
2023/01/01 12:30:10;;;;;;;1.92;1.20;;;12.20;90.60;;;;;;5048113;28;20032;-77
2023/01/01 12:33:02;;;;;;;2.67;1.30;;;12.20;90.60;;;;;;5047859;28;20040;-83
2023/01/01 12:35:59;;;;;;;1.77;1.10;;;12.20;90.60;;;;;;5048992;28;20016;-78
2023/01/01 12:38:36;;;;;;;2.28;1.17;;;12.20;90.60;;;;;;5049107;28;20056;-80
2023/01/01 12:41:12;;;;;;;6.28;1.77;;;12.20;90.60;;;;;;5053234;28;20029;-82
2023/01/01 12:43:43;;;;;;;11.60;1.50;;;12.20;90.50;;;;;;5049757;28;20029;-77
2023/01/01 12:46:34;;;;;;;7.78;1.52;;;12.30;90.50;;;;;;5048252;28;20052;-77
2023/01/01 12:49:18;;;;;;;8.52;1.83;;;12.30;90.50;;;;;;5047922;28;20036;-76
2023/01/01 12:52:06;;;;;;;10.48;2.13;;;12.30;90.40;;;;;;5049329;28;20025;-75
2023/01/01 12:54:51;;;;;;;9.55;1.70;;;12.40;90.30;;;;;;5047613;28;20029;-78
2023/01/01 12:57:39;;;;;;;4.57;1.27;;;12.40;90.30;;;;;;5046660;28;20028;-74
2023/01/01 13:00:13;;;;;;;6.10;1.25;;;12.40;90.30;;;;;;5046878;28;20021;-73
2023/01/01 13:02:47;;;;;;;5.13;1.50;;;12.30;90.30;;;;;;5040022;28;20155;-73
2023/01/01 13:05:18;;;;;;;5.32;1.23;;;12.30;90.30;;;;;;5038551;28;20112;-77
2023/01/01 13:07:47;;;;;;;5.13;1.40;;;12.30;90.30;;;;;;5034075;28;20033;-74
2023/01/01 13:10:35;;;;;;;6.05;1.70;;;12.30;90.60;;;;;;5033233;28;20021;-73
2023/01/01 13:13:02;;;;;;;3.90;1.15;;;12.30;90.40;;;;;;5027477;28;20026;-75